createdAt,value
2019-03-28T01:04:19.434Z,96653.41
2019-03-28T01:09:20.732Z,96648.75
2019-03-28T01:14:22.757Z,96645.75
2019-03-28T01:19:24.062Z,96646.17
2019-03-28T01:24:25.365Z,96641.19
2019-03-28T01:29:26.662Z,96643.69
2019-03-28T02:31:31.484Z,96636.31
2019-03-28T02:36:32.795Z,96621.77
2019-03-28T02:41:34.881Z,96629.58
2019-03-28T02:46:35.450Z,96628.98
2019-03-28T02:51:36.834Z,96622.94
2019-03-28T02:56:38.926Z,96634.15
2019-03-28T04:05:00.773Z,96627.00
2019-03-28T04:10:02.208Z,96618.77
2019-03-28T04:15:03.524Z,96623.09
2019-03-28T04:20:07.963Z,96616.61
2019-03-28T04:25:09.299Z,96619.68
2019-03-28T04:30:10.605Z,96630.05
2019-03-28T05:32:12.442Z,96647.52
2019-03-28T05:37:14.498Z,96651.15
2019-03-28T05:42:15.855Z,96652.42
2019-03-28T05:47:17.210Z,96651.88
2019-03-28T05:52:18.606Z,96657.30
2019-03-28T05:57:19.998Z,96661.28
2019-03-28T07:05:42.907Z,96678.17
2019-03-28T07:10:45.646Z,96675.02
2019-03-28T07:15:46.981Z,96672.23
2019-03-28T07:20:48.296Z,96671.17
2019-03-28T07:25:49.598Z,96670.87
2019-03-28T08:34:01.741Z,96677.30
2019-03-28T08:39:00.667Z,96685.67
2019-03-28T08:44:01.362Z,96681.75
2019-03-28T08:49:02.679Z,96671.83
2019-03-28T08:54:04.017Z,96679.48
2019-03-28T08:59:05.317Z,96674.72
2019-03-28T10:01:08.562Z,96664.97
2019-03-28T10:06:09.830Z,96658.56
2019-03-28T10:11:11.161Z,96656.01
2019-03-28T10:16:12.453Z,96657.68
2019-03-28T10:21:13.767Z,96656.33
2019-03-28T10:26:15.787Z,96646.98
2019-03-28T11:34:39.377Z,96617.92
2019-03-28T11:39:40.654Z,96619.05
2019-03-28T11:44:42.740Z,96616.00
2019-03-28T11:49:44.044Z,96609.24
2019-03-28T11:54:46.090Z,96614.29
2019-03-28T11:59:47.393Z,96608.05
2019-03-28T13:01:51.374Z,96558.94
2019-03-28T13:06:52.668Z,96552.52
2019-03-28T13:11:54.010Z,96564.50
2019-03-28T13:16:55.324Z,96563.20
2019-03-28T13:21:56.616Z,96571.77
2019-03-28T13:26:57.915Z,96565.21
2019-03-28T14:35:21.239Z,96546.67
2019-03-28T14:40:22.559Z,96540.31
2019-03-28T14:45:23.898Z,96529.23
2019-03-28T14:50:30.795Z,96528.58
2019-03-28T14:55:32.834Z,96527.42
2019-03-28T15:00:39.916Z,96533.61
2019-03-28T16:02:43.742Z,96536.12
2019-03-28T16:07:45.116Z,96540.44
2019-03-28T16:12:48.041Z,96537.77
2019-03-28T16:17:49.353Z,96534.31
2019-03-28T16:22:50.636Z,96533.42
2019-03-28T16:27:51.936Z,96540.45
2019-03-28T16:32:53.244Z,96540.07
2019-03-28T16:37:54.542Z,96548.20
2019-03-28T16:42:55.885Z,96554.23
2019-03-28T16:47:57.209Z,96561.87
2019-03-28T16:52:58.544Z,96564.19
2019-03-28T16:57:59.896Z,96557.72
2019-03-28T17:03:03.186Z,96558.68
2019-03-28T17:08:09.616Z,96556.76
2019-03-28T17:13:11.018Z,96559.69
2019-03-28T17:18:18.592Z,96557.28
2019-03-28T17:23:17.825Z,96565.02
2019-03-28T17:28:19.207Z,96565.44
2019-03-28T17:33:20.628Z,96570.72
2019-03-28T17:38:22.136Z,96569.77
2019-03-28T17:43:23.571Z,96575.94
2019-03-28T17:48:24.949Z,96581.71
2019-03-28T17:53:26.385Z,96587.22
2019-03-28T17:58:27.797Z,96591.24
2019-03-28T18:03:31.340Z,96593.91
2019-03-28T18:08:31.098Z,96603.53
2019-03-28T18:13:32.477Z,96605.72
2019-03-28T18:18:36.093Z,96612.47
2019-03-28T18:23:40.850Z,96616.05
2019-03-28T18:28:42.228Z,96614.44
2019-03-28T18:33:43.813Z,96621.16
2019-03-28T18:38:45.195Z,96617.81
2019-03-28T18:43:46.529Z,96628.86
2019-03-28T18:48:47.880Z,96628.03
2019-03-28T18:53:49.454Z,96625.65
2019-03-28T18:58:50.806Z,96621.64
2019-03-28T19:03:52.229Z,96626.33
2019-03-28T19:08:53.801Z,96616.69
2019-03-28T19:13:54.971Z,96626.53
2019-03-28T19:18:56.383Z,96628.22
2019-03-28T19:23:57.758Z,96631.67
2019-03-28T19:28:59.081Z,96629.27
2019-03-28T19:34:01.505Z,96634.23
2019-03-28T19:39:05.171Z,96634.59
2019-03-28T19:44:12.091Z,96635.48
2019-03-28T19:49:23.978Z,96633.75
2019-03-28T19:54:40.620Z,96632.39
2019-03-28T19:59:45.311Z,96639.16
2019-03-28T20:04:53.296Z,96643.93
2019-03-28T20:09:57.299Z,96639.39
2019-03-28T20:15:04.201Z,96649.38
2019-03-28T20:20:07.245Z,96648.64
2019-03-28T20:25:10.741Z,96655.31
2019-03-28T20:30:15.970Z,96658.38
2019-03-28T20:35:22.783Z,96656.63
2019-03-28T20:40:27.419Z,96658.73
2019-03-28T20:45:31.119Z,96666.30
2019-03-28T20:50:36.548Z,96663.53
2019-03-28T20:55:49.489Z,96670.72
2019-03-28T21:00:52.307Z,96681.63
2019-03-28T21:05:54.461Z,96681.72
2019-03-28T21:10:55.827Z,96679.16
2019-03-28T21:15:57.920Z,96682.55
2019-03-28T21:20:59.258Z,96679.34
2019-03-28T21:26:00.679Z,96676.59
2019-03-28T21:31:02.058Z,96669.95
2019-03-28T21:36:04.211Z,96666.40
2019-03-28T21:41:12.871Z,96667.62
2019-03-28T21:46:14.251Z,96667.12
2019-03-28T21:51:21.108Z,96670.76
2019-03-28T21:56:22.631Z,96666.45
2019-03-28T22:01:23.878Z,96662.17
2019-03-28T22:06:25.300Z,96661.97
2019-03-28T22:11:26.719Z,96660.55
2019-03-28T22:16:28.133Z,96650.75
2019-03-28T22:21:29.477Z,96640.21
2019-03-28T22:26:31.544Z,96637.19
2019-03-28T22:31:32.937Z,96635.55
2019-03-28T22:36:34.295Z,96627.33
2019-03-28T22:41:36.502Z,96623.59
2019-03-28T22:46:39.791Z,96622.25
2019-03-28T22:51:39.272Z,96612.55
2019-03-28T22:56:50.386Z,96605.88
2019-03-28T23:33:31.125Z,96602.45
2019-03-28T23:38:32.270Z,96607.90
2019-03-28T23:43:33.625Z,96601.94
2019-03-28T23:48:34.917Z,96591.41
2019-03-28T23:53:36.269Z,96595.95
2019-03-28T23:58:37.576Z,96593.05
